Time;durP1;ratioP1;P1;durP2;ratioP2;P2;SDS_P1;SDS_P2;PMS_P1;PMS_P2;Temp;Humidity;BMP_temperature;BMP_pressure;BME280_temperature;BME280_humidity;BME280_pressure;Samples;Min_cycle;Max_cycle;Signal;HPM_P1;HPM_P2
2023/10/17 00:00:38;;;;;;;;;3.00;2.00;;;;;;;;5007278;28;45858;-39
2023/10/17 00:03:05;;;;;;;;;3.00;3.00;;;;;;;;5015272;28;45703;-39
2023/10/17 00:05:31;;;;;;;;;4.00;2.00;;;;;;;;5014702;28;45476;-39
2023/10/17 00:07:58;;;;;;;;;3.00;2.00;;;;;;;;5017757;28;45320;-39
2023/10/17 00:10:23;;;;;;;;;3.00;2.33;;;;;;;;5018127;28;45499;-39
2023/10/17 00:12:52;;;;;;;;;3.00;2.00;;;;;;;;5016826;28;45853;-39
2023/10/17 00:15:35;;;;;;;;;3.33;2.00;;;;;;;;5019356;28;45242;-39
2023/10/17 00:18:15;;;;;;;;;2.00;2.00;;;;;;;;5020548;28;45292;-39
2023/10/17 00:20:40;;;;;;;;;3.00;2.00;;;;;;;;5026832;28;45486;-39
2023/10/17 00:23:06;;;;;;;;;2.33;2.33;;;;;;;;5017475;28;46184;-39
2023/10/17 00:25:32;;;;;;;;;2.33;2.33;;;;;;;;5025541;28;45375;-39
2023/10/17 00:27:58;;;;;;;;;2.00;2.00;;;;;;;;5025096;28;45474;-39
2023/10/17 00:30:23;;;;;;;;;1.33;1.33;;;;;;;;5026304;28;45481;-39
2023/10/17 00:32:51;;;;;;;;;3.00;2.00;;;;;;;;5030159;28;46168;-40
2023/10/17 00:35:19;;;;;;;;;3.67;2.00;;;;;;;;5025579;28;45288;-39
2023/10/17 00:37:59;;;;;;;;;3.00;1.00;;;;;;;;5020674;28;45360;-39
2023/10/17 00:43:11;;;;;;;;;2.00;2.00;;;;;;;;5026995;28;45403;-39
2023/10/17 00:45:37;;;;;;;;;3.00;2.00;;;;;;;;5003220;28;45452;-39
2023/10/17 00:48:08;;;;;;;;;2.00;1.67;;;;;;;;5026138;28;45344;-39
2023/10/17 00:50:33;;;;;;;;;2.67;2.00;;;;;;;;5030924;28;45289;-38
2023/10/17 00:52:58;;;;;;;;;4.00;2.33;;;;;;;;5021316;28;46535;-39
2023/10/17 00:55:26;;;;;;;;;5.33;2.33;;;;;;;;5018737;28;45205;-39
2023/10/17 00:57:52;;;;;;;;;2.00;2.00;;;;;;;;5009020;28;45300;-39
2023/10/17 01:00:35;;;;;;;;;2.33;2.33;;;;;;;;5020330;28;45428;-38
2023/10/17 01:03:05;;;;;;;;;2.00;2.00;;;;;;;;5020550;28;45463;-39
2023/10/17 01:05:39;;;;;;;;;3.67;2.00;;;;;;;;5010446;28;45438;-40
2023/10/17 01:08:05;;;;;;;;;2.00;2.00;;;;;;;;5009759;28;45346;-39
2023/10/17 01:10:30;;;;;;;;;2.00;2.00;;;;;;;;5020723;28;45289;-39
2023/10/17 01:13:04;;;;;;;;;3.00;2.67;;;;;;;;5020475;28;46455;-39
2023/10/17 01:15:32;;;;;;;;;2.33;2.33;;;;;;;;5015788;28;45515;-39
2023/10/17 01:18:03;;;;;;;;;2.33;1.00;;;;;;;;5019609;28;45479;-40
2023/10/17 01:20:29;;;;;;;;;2.33;2.00;;;;;;;;5020424;28;45370;-39
2023/10/17 01:22:56;;;;;;;;;5.67;2.00;;;;;;;;5002061;28;47561;-40
2023/10/17 01:25:25;;;;;;;;;4.67;3.00;;;;;;;;5020272;28;45351;-39
2023/10/17 01:27:51;;;;;;;;;2.00;2.00;;;;;;;;5019827;28;45562;-39
2023/10/17 01:30:17;;;;;;;;;3.00;2.33;;;;;;;;5000536;28;45474;-39
2023/10/17 01:32:42;;;;;;;;;4.00;3.00;;;;;;;;5020081;28;45423;-39
2023/10/17 01:35:07;;;;;;;;;2.67;2.33;;;;;;;;5020243;28;45223;-39
2023/10/17 01:37:32;;;;;;;;;2.00;2.00;;;;;;;;5020000;28;45218;-39
2023/10/17 01:39:58;;;;;;;;;2.67;2.67;;;;;;;;5019660;28;45260;-39
2023/10/17 01:42:23;;;;;;;;;2.33;2.00;;;;;;;;5019273;28;46482;-39
2023/10/17 01:44:50;;;;;;;;;3.00;3.00;;;;;;;;5020126;28;45455;-39
2023/10/17 01:47:16;;;;;;;;;2.00;2.00;;;;;;;;5019428;28;45471;-39
2023/10/17 01:49:42;;;;;;;;;3.33;2.00;;;;;;;;5019814;28;45362;-39
2023/10/17 01:52:11;;;;;;;;;4.67;3.00;;;;;;;;5018936;28;45388;-39
2023/10/17 01:54:36;;;;;;;;;1.00;1.00;;;;;;;;5020082;28;45376;-39
2023/10/17 01:57:06;;;;;;;;;1.33;1.33;;;;;;;;5016908;28;45236;-38
2023/10/17 01:59:34;;;;;;;;;3.00;3.00;;;;;;;;5019612;28;45600;-38
2023/10/17 02:01:59;;;;;;;;;3.00;2.00;;;;;;;;5019094;28;46038;-39
2023/10/17 02:04:25;;;;;;;;;2.00;2.00;;;;;;;;5016322;28;45393;-39
2023/10/17 02:06:50;;;;;;;;;6.00;3.00;;;;;;;;5019114;28;45466;-38
2023/10/17 02:11:57;;;;;;;;;1.33;1.33;;;;;;;;5013405;28;46203;-38
2023/10/17 02:14:22;;;;;;;;;4.00;3.00;;;;;;;;5019252;28;45391;-39
2023/10/17 02:16:48;;;;;;;;;2.00;2.00;;;;;;;;5019046;28;45471;-39
2023/10/17 02:19:14;;;;;;;;;2.00;2.00;;;;;;;;5016617;28;46877;-40
2023/10/17 02:21:39;;;;;;;;;3.00;3.00;;;;;;;;5018116;28;46149;-39
2023/10/17 02:24:05;;;;;;;;;3.67;3.67;;;;;;;;5010078;28;45400;-38
2023/10/17 02:26:31;;;;;;;;;2.00;2.00;;;;;;;;5019911;28;45159;-39
2023/10/17 02:28:59;;;;;;;;;3.00;3.00;;;;;;;;5018747;28;45707;-38
2023/10/17 02:31:29;;;;;;;;;2.00;2.00;;;;;;;;5019370;28;45412;-39
2023/10/17 02:33:55;;;;;;;;;4.67;2.33;;;;;;;;5019314;28;45405;-39
2023/10/17 02:36:20;;;;;;;;;4.67;3.00;;;;;;;;4998737;28;45281;-39
2023/10/17 02:38:45;;;;;;;;;3.67;3.00;;;;;;;;5019610;28;45250;-39
2023/10/17 02:41:18;;;;;;;;;3.00;3.00;;;;;;;;5017649;28;46358;-39
2023/10/17 02:43:45;;;;;;;;;4.00;3.00;;;;;;;;5018542;28;45407;-39
2023/10/17 02:46:12;;;;;;;;;1.67;1.67;;;;;;;;5019203;28;45354;-39
2023/10/17 02:48:42;;;;;;;;;2.67;2.00;;;;;;;;5001328;28;45532;-39
2023/10/17 02:53:52;;;;;;;;;3.00;3.00;;;;;;;;5018713;28;45434;-38
2023/10/17 02:56:20;;;;;;;;;3.00;3.00;;;;;;;;5018839;28;45376;-39
2023/10/17 02:58:49;;;;;;;;;2.67;2.67;;;;;;;;5017688;28;45948;-39
2023/10/17 03:01:14;;;;;;;;;5.00;4.00;;;;;;;;5018246;28;46198;-39
2023/10/17 03:03:40;;;;;;;;;3.33;3.33;;;;;;;;5016254;28;45301;-40
2023/10/17 03:06:05;;;;;;;;;3.00;3.00;;;;;;;;5011054;28;45401;-39
2023/10/17 03:08:36;;;;;;;;;2.67;2.00;;;;;;;;5019423;28;45580;-40
2023/10/17 03:11:02;;;;;;;;;3.00;3.00;;;;;;;;5018907;28;45763;-40
2023/10/17 03:13:39;;;;;;;;;4.00;4.00;;;;;;;;5010010;28;45510;-39
2023/10/17 03:16:24;;;;;;;;;4.00;3.00;;;;;;;;5016007;28;45297;-40
2023/10/17 03:18:50;;;;;;;;;4.33;3.00;;;;;;;;5009173;28;45480;-40
2023/10/17 03:21:18;;;;;;;;;3.00;3.00;;;;;;;;5016349;28;46233;-40
2023/10/17 03:23:48;;;;;;;;;3.00;3.00;;;;;;;;5018391;28;45320;-39
2023/10/17 03:26:16;;;;;;;;;5.00;4.00;;;;;;;;5000909;28;45436;-40
2023/10/17 03:28:42;;;;;;;;;3.33;3.33;;;;;;;;5015868;28;45393;-40
2023/10/17 03:31:10;;;;;;;;;3.67;2.00;;;;;;;;5017214;28;45473;-40
2023/10/17 03:33:40;;;;;;;;;4.00;2.67;;;;;;;;5012147;28;45347;-40
2023/10/17 03:36:05;;;;;;;;;2.33;2.33;;;;;;;;5019260;28;46422;-40
2023/10/17 03:38:32;;;;;;;;;1.00;1.00;;;;;;;;5020500;28;45325;-40
2023/10/17 03:41:02;;;;;;;;;4.67;4.00;;;;;;;;4997693;28;46823;-40
2023/10/17 03:43:38;;;;;;;;;3.00;3.00;;;;;;;;5018396;28;45280;-40
2023/10/17 03:46:05;;;;;;;;;6.33;4.00;;;;;;;;5014399;28;45527;-40
2023/10/17 03:48:32;;;;;;;;;3.00;3.00;;;;;;;;5018641;28;45409;-39
2023/10/17 03:53:36;;;;;;;;;3.00;3.00;;;;;;;;5019936;28;45312;-40
2023/10/17 03:56:02;;;;;;;;;2.67;2.67;;;;;;;;5003547;28;45201;-39
2023/10/17 04:00:58;;;;;;;;;3.00;3.00;;;;;;;;5013830;28;45529;-39
2023/10/17 04:03:30;;;;;;;;;4.67;3.33;;;;;;;;5017410;28;45487;-39
2023/10/17 04:06:17;;;;;;;;;5.00;4.00;;;;;;;;5005372;28;45688;-39
2023/10/17 04:08:48;;;;;;;;;2.33;2.33;;;;;;;;5021327;28;45482;-40
2023/10/17 04:13:49;;;;;;;;;4.00;4.00;;;;;;;;5015551;28;45490;-39
2023/10/17 04:16:33;;;;;;;;;3.00;3.00;;;;;;;;5021448;28;45742;-42
2023/10/17 04:19:18;;;;;;;;;3.33;3.33;;;;;;;;5003428;28;45360;-40
2023/10/17 04:21:51;;;;;;;;;4.00;3.00;;;;;;;;5003614;28;46276;-39
2023/10/17 04:24:26;;;;;;;;;3.67;3.67;;;;;;;;4993901;28;45219;-39
2023/10/17 04:26:56;;;;;;;;;4.67;3.33;;;;;;;;5021832;28;45841;-39
2023/10/17 04:29:26;;;;;;;;;4.00;3.00;;;;;;;;5016162;28;45337;-39
2023/10/17 04:31:56;;;;;;;;;4.00;4.00;;;;;;;;5021425;28;45513;-39
2023/10/17 04:34:22;;;;;;;;;3.00;3.00;;;;;;;;5021395;28;45483;-39
2023/10/17 04:36:56;;;;;;;;;3.67;3.00;;;;;;;;5021850;28;45324;-39
2023/10/17 04:44:20;;;;;;;;;3.00;3.00;;;;;;;;5020268;28;45250;-39
2023/10/17 04:47:06;;;;;;;;;5.33;3.00;;;;;;;;5018550;28;45505;-39
2023/10/17 04:49:32;;;;;;;;;2.67;2.67;;;;;;;;5016515;28;45371;-39
2023/10/17 04:52:06;;;;;;;;;2.00;1.00;;;;;;;;5030146;28;45398;-39
2023/10/17 04:57:00;;;;;;;;;4.33;3.00;;;;;;;;5020726;28;45619;-39
2023/10/17 05:07:27;;;;;;;;;2.33;2.33;;;;;;;;5025008;28;45449;-38
2023/10/17 06:18:38;;;;;;;;;8.67;6.33;;;;;;;;5006044;28;45696;-41
2023/10/17 06:21:07;;;;;;;;;5.00;5.00;;;;;;;;5018663;28;45475;-40
2023/10/17 06:26:47;;;;;;;;;7.67;4.67;;;;;;;;5025232;28;45292;-41
2023/10/17 06:34:14;;;;;;;;;5.67;5.67;;;;;;;;5019645;28;45401;-40
2023/10/17 06:36:40;;;;;;;;;6.00;5.33;;;;;;;;5018166;28;45355;-40
2023/10/17 06:39:14;;;;;;;;;2.67;2.67;;;;;;;;5002424;28;47732;-40
2023/10/17 06:41:39;;;;;;;;;5.00;5.00;;;;;;;;5019657;28;45391;-40
2023/10/17 06:44:05;;;;;;;;;6.00;4.67;;;;;;;;4995673;28;45507;-39
2023/10/17 06:46:40;;;;;;;;;7.67;5.33;;;;;;;;5015333;28;45476;-40
2023/10/17 06:49:08;;;;;;;;;8.00;6.00;;;;;;;;5025432;28;45383;-39
2023/10/17 06:51:36;;;;;;;;;5.00;5.00;;;;;;;;5030860;28;45596;-40
2023/10/17 06:54:08;;;;;;;;;8.67;5.33;;;;;;;;5015939;28;45356;-39
2023/10/17 06:56:38;;;;;;;;;7.67;6.33;;;;;;;;5000643;28;45434;-39
2023/10/17 06:59:05;;;;;;;;;5.33;4.00;;;;;;;;4987576;28;47421;-39
2023/10/17 07:01:33;;;;;;;;;4.00;4.00;;;;;;;;4998731;28;45269;-39
2023/10/17 07:04:02;;;;;;;;;6.00;6.00;;;;;;;;4999079;28;45414;-40
2023/10/17 07:06:29;;;;;;;;;4.67;4.67;;;;;;;;4999374;28;45381;-40
2023/10/17 07:08:54;;;;;;;;;6.67;6.00;;;;;;;;4981673;28;46658;-40
2023/10/17 07:13:55;;;;;;;;;7.00;6.33;;;;;;;;5000223;28;45340;-39
2023/10/17 07:16:27;;;;;;;;;8.00;7.33;;;;;;;;4999190;28;45410;-39
2023/10/17 07:18:53;;;;;;;;;5.67;5.67;;;;;;;;4999459;28;47109;-39
2023/10/17 07:21:24;;;;;;;;;10.00;7.33;;;;;;;;4999900;28;45444;-39
2023/10/17 07:23:53;;;;;;;;;12.67;7.33;;;;;;;;4991024;28;45357;-39
2023/10/17 07:26:38;;;;;;;;;10.00;6.33;;;;;;;;4998434;28;45521;-39
2023/10/17 07:29:05;;;;;;;;;11.00;7.00;;;;;;;;4992981;28;47095;-39
2023/10/17 07:31:30;;;;;;;;;11.33;8.67;;;;;;;;4981351;28;45642;-40
2023/10/17 07:34:16;;;;;;;;;8.33;7.33;;;;;;;;4999180;28;45342;-39
2023/10/17 07:36:43;;;;;;;;;8.50;8.00;;;;;;;;4998825;28;45839;-39
2023/10/17 07:39:22;;;;;;;;;6.67;5.67;;;;;;;;4997507;28;45363;-40
2023/10/17 07:41:53;;;;;;;;;6.67;6.67;;;;;;;;4998782;28;45331;-40
2023/10/17 07:44:21;;;;;;;;;7.00;7.00;;;;;;;;4977343;28;45350;-39
2023/10/17 07:46:50;;;;;;;;;12.00;7.33;;;;;;;;4998922;28;45619;-40
2023/10/17 07:49:18;;;;;;;;;10.67;7.67;;;;;;;;4998206;28;46001;-40
2023/10/17 07:51:44;;;;;;;;;12.00;10.00;;;;;;;;4995224;28;45539;-40
2023/10/17 07:54:16;;;;;;;;;7.33;7.00;;;;;;;;4998265;28;45200;-39
2023/10/17 07:56:47;;;;;;;;;9.00;9.00;;;;;;;;4998886;28;45388;-40
2023/10/17 07:59:16;;;;;;;;;7.00;7.00;;;;;;;;5006093;28;45377;-39
2023/10/17 08:01:49;;;;;;;;;9.67;8.00;;;;;;;;5014801;28;45364;-40
2023/10/17 08:04:18;;;;;;;;;7.00;6.67;;;;;;;;5017759;28;45378;-39
2023/10/17 08:06:44;;;;;;;;;10.33;10.00;;;;;;;;5016628;28;45407;-39
2023/10/17 08:09:50;;;;;;;;;7.00;7.00;;;;;;;;5017482;28;46457;-38
2023/10/17 08:12:05;;;;;;;;;7.00;7.00;;;;;;;;4998360;28;45427;-39
2023/10/17 08:14:44;;;;;;;;;6.67;6.67;;;;;;;;5018107;28;45388;-39
2023/10/17 08:17:10;;;;;;;;;8.33;8.00;;;;;;;;5017916;28;45411;-39
2023/10/17 08:22:19;;;;;;;;;9.33;8.00;;;;;;;;5017613;28;45506;-39
2023/10/17 08:24:53;;;;;;;;;8.33;7.67;;;;;;;;5018207;28;45329;-40
2023/10/17 08:27:41;;;;;;;;;8.33;7.33;;;;;;;;5006283;28;45364;-40
2023/10/17 08:30:12;;;;;;;;;8.00;8.00;;;;;;;;5013427;28;45878;-39
2023/10/17 08:32:38;;;;;;;;;9.00;7.67;;;;;;;;5017714;28;45533;-39
2023/10/17 08:35:51;;;;;;;;;9.67;7.67;;;;;;;;5017358;28;45310;-39
2023/10/17 08:37:52;;;;;;;;;6.00;6.00;;;;;;;;5000013;28;46372;-40
2023/10/17 08:40:29;;;;;;;;;8.67;7.33;;;;;;;;5018142;28;47271;-40
2023/10/17 08:43:03;;;;;;;;;9.33;7.00;;;;;;;;5003283;28;45506;-39
2023/10/17 08:45:36;;;;;;;;;8.67;7.33;;;;;;;;5021451;28;45746;-39
2023/10/17 08:48:01;;;;;;;;;8.67;7.00;;;;;;;;5020733;28;45356;-39
2023/10/17 08:50:27;;;;;;;;;12.33;10.00;;;;;;;;5021094;28;45794;-39
2023/10/17 08:52:53;;;;;;;;;9.33;8.33;;;;;;;;5020652;28;45404;-40
2023/10/17 08:55:20;;;;;;;;;8.00;7.00;;;;;;;;5020616;28;45473;-39
2023/10/17 08:57:46;;;;;;;;;11.00;8.67;;;;;;;;5020999;28;45426;-40
2023/10/17 09:02:43;;;;;;;;;9.00;8.00;;;;;;;;5001420;28;45246;-40
2023/10/17 09:05:17;;;;;;;;;8.00;8.00;;;;;;;;5000844;28;45341;-39
2023/10/17 09:07:44;;;;;;;;;10.67;9.33;;;;;;;;4999346;28;45643;-39
2023/10/17 09:10:30;;;;;;;;;13.33;9.67;;;;;;;;4982950;28;47135;-39
2023/10/17 09:15:56;;;;;;;;;9.33;9.33;;;;;;;;5000251;28;45534;-40
2023/10/17 09:18:28;;;;;;;;;9.00;9.00;;;;;;;;4979208;28;45435;-39
2023/10/17 09:20:54;;;;;;;;;10.00;9.67;;;;;;;;5000669;28;45560;-40
2023/10/17 09:23:27;;;;;;;;;9.00;8.33;;;;;;;;4996566;28;45444;-40
2023/10/17 09:25:54;;;;;;;;;9.67;9.67;;;;;;;;5001054;28;45238;-40
2023/10/17 09:28:22;;;;;;;;;8.00;8.00;;;;;;;;5000355;28;45440;-40
2023/10/17 09:31:08;;;;;;;;;10.00;9.67;;;;;;;;5000609;28;45467;-40
2023/10/17 09:33:35;;;;;;;;;7.67;7.67;;;;;;;;5005449;28;45505;-41
2023/10/17 09:36:04;;;;;;;;;8.00;8.00;;;;;;;;5000315;28;45463;-40
2023/10/17 09:38:30;;;;;;;;;9.67;7.33;;;;;;;;5000378;28;45666;-40
2023/10/17 09:40:59;;;;;;;;;7.00;7.00;;;;;;;;5000068;28;46313;-41
2023/10/17 09:43:25;;;;;;;;;14.00;10.33;;;;;;;;5000576;28;45439;-40
2023/10/17 09:45:52;;;;;;;;;10.00;8.00;;;;;;;;5001017;28;45344;-41
2023/10/17 09:48:21;;;;;;;;;12.00;10.33;;;;;;;;5000011;28;45329;-41
2023/10/17 09:50:46;;;;;;;;;9.00;9.00;;;;;;;;5005167;28;45406;-40
2023/10/17 09:53:16;;;;;;;;;10.67;9.33;;;;;;;;4999568;28;45309;-41
2023/10/17 09:55:44;;;;;;;;;8.67;8.67;;;;;;;;5000604;28;45429;-41
2023/10/17 09:58:10;;;;;;;;;8.67;8.00;;;;;;;;4982832;28;45667;-41
2023/10/17 10:00:41;;;;;;;;;10.00;9.33;;;;;;;;5008085;28;46998;-40
2023/10/17 10:03:07;;;;;;;;;9.00;9.00;;;;;;;;4999080;28;45246;-40
2023/10/17 10:05:32;;;;;;;;;9.00;9.00;;;;;;;;5004563;28;45364;-40
2023/10/17 10:08:21;;;;;;;;;9.67;9.00;;;;;;;;4994772;28;45425;-41
2023/10/17 10:10:52;;;;;;;;;12.33;9.67;;;;;;;;5004679;28;45888;-42
2023/10/17 10:13:17;;;;;;;;;8.67;6.00;;;;;;;;4999495;28;45476;-42
2023/10/17 10:15:50;;;;;;;;;12.67;9.00;;;;;;;;5009397;28;45332;-42
2023/10/17 10:18:16;;;;;;;;;13.00;9.00;;;;;;;;5004079;28;45514;-41
2023/10/17 10:20:55;;;;;;;;;8.67;8.33;;;;;;;;5008256;28;45854;-42
2023/10/17 10:23:31;;;;;;;;;9.33;9.00;;;;;;;;4979439;28;45369;-41
2023/10/17 10:26:10;;;;;;;;;9.33;9.33;;;;;;;;5004057;28;45475;-41
2023/10/17 10:28:36;;;;;;;;;9.67;8.67;;;;;;;;5001185;28;45550;-41
2023/10/17 10:31:21;;;;;;;;;9.00;7.00;;;;;;;;4996647;28;46192;-41
2023/10/17 10:33:50;;;;;;;;;5.00;4.33;;;;;;;;4999356;28;45439;-41
2023/10/17 10:36:16;;;;;;;;;7.33;7.33;;;;;;;;4995130;28;45633;-41
2023/10/17 10:38:41;;;;;;;;;8.33;8.33;;;;;;;;5010582;28;45576;-41
2023/10/17 10:41:07;;;;;;;;;7.00;7.00;;;;;;;;5004367;28;46184;-41
2023/10/17 10:43:32;;;;;;;;;8.00;8.00;;;;;;;;5005178;28;45325;-41
2023/10/17 10:45:58;;;;;;;;;8.00;8.00;;;;;;;;5005266;28;45428;-40
2023/10/17 10:48:23;;;;;;;;;8.00;8.00;;;;;;;;5000250;28;45514;-42
2023/10/17 10:50:49;;;;;;;;;7.67;7.67;;;;;;;;4986736;28;48202;-46
2023/10/17 10:53:18;;;;;;;;;10.00;8.00;;;;;;;;5008961;28;45312;-42
2023/10/17 10:55:49;;;;;;;;;11.00;10.00;;;;;;;;4995154;28;45384;-41
2023/10/17 10:58:15;;;;;;;;;15.00;11.00;;;;;;;;5007806;28;45340;-40
2023/10/17 11:00:40;;;;;;;;;9.00;9.00;;;;;;;;5007874;28;46290;-40
2023/10/17 11:03:06;;;;;;;;;6.33;6.33;;;;;;;;4998165;28;45400;-41
2023/10/17 11:05:33;;;;;;;;;7.00;7.00;;;;;;;;5000245;28;45329;-40
2023/10/17 11:08:00;;;;;;;;;12.67;9.33;;;;;;;;5002722;28;45673;-42
2023/10/17 11:10:25;;;;;;;;;8.67;8.00;;;;;;;;4975506;28;47192;-40
2023/10/17 11:12:54;;;;;;;;;10.33;6.67;;;;;;;;4998910;28;45329;-41
2023/10/17 11:15:22;;;;;;;;;5.33;5.00;;;;;;;;4992773;28;45449;-40
2023/10/17 11:17:47;;;;;;;;;5.33;4.00;;;;;;;;4997774;28;45620;-41
2023/10/17 11:20:18;;;;;;;;;8.00;8.00;;;;;;;;5005800;28;45671;-43
2023/10/17 11:22:44;;;;;;;;;7.00;7.00;;;;;;;;5002591;28;45415;-42
2023/10/17 11:25:13;;;;;;;;;7.33;6.67;;;;;;;;5004568;28;45256;-40
2023/10/17 11:27:39;;;;;;;;;6.00;5.33;;;;;;;;4993583;28;45586;-40
2023/10/17 11:30:06;;;;;;;;;9.00;8.00;;;;;;;;5000307;28;45461;-41
2023/10/17 11:32:39;;;;;;;;;9.00;6.67;;;;;;;;5002249;28;45342;-42
2023/10/17 11:35:05;;;;;;;;;6.33;4.67;;;;;;;;5000843;28;45488;-41
2023/10/17 11:37:34;;;;;;;;;7.00;5.00;;;;;;;;5004638;28;45353;-41
2023/10/17 11:40:17;;;;;;;;;7.67;6.33;;;;;;;;5008549;28;46323;-41
2023/10/17 11:42:42;;;;;;;;;9.33;9.33;;;;;;;;4983685;28;46014;-41
2023/10/17 11:45:19;;;;;;;;;8.00;6.33;;;;;;;;4986800;28;45274;-41
2023/10/17 11:47:44;;;;;;;;;7.00;6.00;;;;;;;;5000244;28;45542;-43
2023/10/17 11:50:10;;;;;;;;;7.00;6.67;;;;;;;;5003230;28;45589;-41
2023/10/17 11:52:40;;;;;;;;;7.33;7.00;;;;;;;;5005897;28;45337;-41
2023/10/17 11:55:11;;;;;;;;;6.67;6.67;;;;;;;;4990962;28;45472;-41
2023/10/17 11:57:37;;;;;;;;;5.00;4.67;;;;;;;;5004810;28;45927;-40
2023/10/17 12:02:42;;;;;;;;;8.00;6.00;;;;;;;;5006771;28;45406;-41
2023/10/17 12:05:17;;;;;;;;;9.67;7.33;;;;;;;;5012000;28;45480;-41
2023/10/17 12:07:42;;;;;;;;;11.00;9.33;;;;;;;;5008152;28;45566;-41
2023/10/17 12:10:08;;;;;;;;;8.33;6.67;;;;;;;;5015701;28;46495;-40
2023/10/17 12:12:34;;;;;;;;;5.67;5.67;;;;;;;;5001306;28;45347;-40
2023/10/17 12:15:00;;;;;;;;;6.00;6.00;;;;;;;;5011207;28;45466;-39
2023/10/17 12:17:25;;;;;;;;;6.00;6.00;;;;;;;;5012285;28;45368;-41
2023/10/17 12:19:51;;;;;;;;;7.33;5.67;;;;;;;;5016436;28;46464;-41
2023/10/17 12:22:16;;;;;;;;;9.33;7.00;;;;;;;;5010369;28;45254;-41
2023/10/17 12:24:42;;;;;;;;;7.67;6.33;;;;;;;;5019780;28;45468;-42
2023/10/17 12:27:12;;;;;;;;;6.33;6.33;;;;;;;;5003268;28;45405;-41
2023/10/17 12:29:37;;;;;;;;;8.67;6.67;;;;;;;;5014274;28;46431;-40
2023/10/17 12:32:04;;;;;;;;;7.33;5.33;;;;;;;;5013234;28;45245;-41
2023/10/17 12:34:30;;;;;;;;;7.00;6.00;;;;;;;;5014845;28;45215;-41
2023/10/17 12:36:55;;;;;;;;;1.67;1.67;;;;;;;;5016706;28;45368;-41
2023/10/17 12:39:21;;;;;;;;;5.00;4.00;;;;;;;;5013341;28;46238;-41
2023/10/17 12:41:46;;;;;;;;;4.67;4.00;;;;;;;;5015029;28;45559;-41
2023/10/17 12:44:12;;;;;;;;;5.00;5.00;;;;;;;;5015761;28;46205;-41
2023/10/17 12:46:37;;;;;;;;;7.67;5.00;;;;;;;;5013898;28;45295;-40
2023/10/17 12:49:02;;;;;;;;;4.33;4.33;;;;;;;;5011978;28;46172;-41
2023/10/17 12:51:28;;;;;;;;;4.00;4.00;;;;;;;;5017784;28;45257;-41
2023/10/17 12:53:53;;;;;;;;;4.00;4.00;;;;;;;;5011243;28;45250;-41
2023/10/17 12:56:20;;;;;;;;;5.00;5.00;;;;;;;;4998132;28;45307;-41
2023/10/17 12:58:45;;;;;;;;;4.67;4.67;;;;;;;;5020253;28;46135;-39
2023/10/17 13:01:13;;;;;;;;;4.33;4.33;;;;;;;;5023985;28;45714;-39
2023/10/17 13:03:39;;;;;;;;;3.67;3.67;;;;;;;;5021192;28;45622;-40
2023/10/17 13:06:05;;;;;;;;;7.00;6.00;;;;;;;;5019192;28;45281;-41
2023/10/17 13:08:30;;;;;;;;;4.00;4.00;;;;;;;;5020533;28;46640;-41
2023/10/17 13:10:57;;;;;;;;;5.67;5.67;;;;;;;;5020985;28;45733;-39
2023/10/17 13:13:22;;;;;;;;;2.33;1.00;;;;;;;;5020738;28;45280;-39
2023/10/17 13:15:48;;;;;;;;;5.33;5.33;;;;;;;;5021039;28;45274;-41
2023/10/17 13:18:14;;;;;;;;;4.00;4.00;;;;;;;;5020565;28;46324;-42
2023/10/17 13:20:46;;;;;;;;;4.33;4.00;;;;;;;;5020333;28;45411;-40
2023/10/17 13:23:11;;;;;;;;;3.67;3.67;;;;;;;;5020126;28;45452;-39
2023/10/17 13:25:38;;;;;;;;;4.00;3.67;;;;;;;;5020328;28;45718;-41
2023/10/17 13:28:04;;;;;;;;;4.33;4.33;;;;;;;;5014541;28;45423;-40
2023/10/17 13:30:29;;;;;;;;;4.00;4.00;;;;;;;;5020214;28;45340;-41
2023/10/17 13:32:54;;;;;;;;;6.33;6.00;;;;;;;;5017725;28;45555;-40
2023/10/17 13:35:21;;;;;;;;;5.67;4.67;;;;;;;;5020549;28;45405;-40
2023/10/17 13:37:52;;;;;;;;;5.33;5.33;;;;;;;;5016521;28;45494;-40
2023/10/17 13:40:19;;;;;;;;;4.67;4.67;;;;;;;;5012295;28;45367;-40
2023/10/17 13:42:45;;;;;;;;;4.67;4.67;;;;;;;;5008549;28;45453;-40
2023/10/17 13:45:13;;;;;;;;;4.67;4.67;;;;;;;;5008748;28;45324;-40
2023/10/17 13:47:40;;;;;;;;;4.33;4.33;;;;;;;;5016780;28;46104;-40
2023/10/17 13:50:05;;;;;;;;;5.67;5.00;;;;;;;;5010162;28;45348;-41
2023/10/17 13:52:32;;;;;;;;;5.00;5.00;;;;;;;;5026437;28;45589;-40
2023/10/17 13:54:58;;;;;;;;;3.00;2.00;;;;;;;;5019476;28;45365;-41
2023/10/17 13:57:29;;;;;;;;;4.67;4.33;;;;;;;;5018853;28;46085;-40
2023/10/17 13:59:55;;;;;;;;;7.67;6.00;;;;;;;;5000156;28;45509;-40
2023/10/17 14:02:21;;;;;;;;;5.33;5.00;;;;;;;;5029751;28;45601;-40
2023/10/17 14:04:47;;;;;;;;;6.33;4.00;;;;;;;;5028598;28;45542;-40
2023/10/17 14:07:12;;;;;;;;;5.67;4.67;;;;;;;;5015785;28;46390;-40
2023/10/17 14:09:39;;;;;;;;;4.33;4.33;;;;;;;;5025780;28;45320;-41
2023/10/17 14:12:07;;;;;;;;;4.00;4.00;;;;;;;;5012927;28;45309;-40
2023/10/17 14:14:32;;;;;;;;;4.00;4.00;;;;;;;;5026670;28;45480;-40
2023/10/17 14:16:58;;;;;;;;;5.33;5.33;;;;;;;;5031648;28;45404;-40
2023/10/17 14:27:22;;;;;;;;;6.67;5.67;;;;;;;;5029998;28;46163;-40
2023/10/17 14:29:48;;;;;;;;;5.00;5.00;;;;;;;;5018573;28;45181;-40
2023/10/17 14:32:14;;;;;;;;;4.00;4.00;;;;;;;;5019102;28;45353;-40
2023/10/17 14:34:39;;;;;;;;;4.67;3.33;;;;;;;;5019227;28;45424;-40
2023/10/17 14:37:07;;;;;;;;;2.33;2.33;;;;;;;;5018001;28;46709;-41
2023/10/17 14:39:33;;;;;;;;;6.33;6.00;;;;;;;;5018986;28;45347;-41
2023/10/17 14:41:58;;;;;;;;;3.00;3.00;;;;;;;;5014264;28;45508;-41
2023/10/17 14:44:24;;;;;;;;;5.00;5.00;;;;;;;;5018430;28;45420;-41
2023/10/17 14:46:52;;;;;;;;;3.00;3.00;;;;;;;;5001263;28;47314;-40
2023/10/17 14:49:18;;;;;;;;;5.00;5.00;;;;;;;;5018057;28;45234;-40
2023/10/17 14:51:43;;;;;;;;;4.00;4.00;;;;;;;;5019320;28;45432;-40
2023/10/17 14:54:08;;;;;;;;;5.00;5.00;;;;;;;;5018646;28;45202;-40
2023/10/17 14:56:34;;;;;;;;;8.00;5.00;;;;;;;;5000946;28;46102;-41
2023/10/17 14:59:00;;;;;;;;;5.33;3.33;;;;;;;;5000879;28;45833;-40
2023/10/17 15:01:26;;;;;;;;;5.00;4.00;;;;;;;;5015196;28;45426;-40
2023/10/17 15:03:51;;;;;;;;;5.00;5.00;;;;;;;;5014483;28;45379;-40
2023/10/17 15:06:17;;;;;;;;;5.33;4.00;;;;;;;;5014973;28;45458;-40
2023/10/17 15:08:43;;;;;;;;;5.00;4.00;;;;;;;;5000286;28;45390;-40
2023/10/17 15:11:10;;;;;;;;;3.00;3.00;;;;;;;;4995625;28;45861;-40
2023/10/17 15:13:36;;;;;;;;;6.00;4.00;;;;;;;;5018336;28;45302;-40
2023/10/17 15:16:04;;;;;;;;;4.00;4.00;;;;;;;;5015416;28;46378;-40
2023/10/17 15:18:30;;;;;;;;;5.00;3.00;;;;;;;;4994190;28;45804;-40
2023/10/17 15:21:03;;;;;;;;;7.67;5.00;;;;;;;;4999853;28;45526;-40
2023/10/17 15:23:28;;;;;;;;;6.00;5.33;;;;;;;;4997380;28;45460;-40
2023/10/17 15:25:55;;;;;;;;;3.67;3.67;;;;;;;;5001584;28;45646;-39
2023/10/17 15:28:20;;;;;;;;;4.00;4.00;;;;;;;;5019867;28;45428;-40
2023/10/17 15:30:45;;;;;;;;;7.00;6.00;;;;;;;;5009402;28;45569;-40
2023/10/17 15:33:12;;;;;;;;;3.67;3.67;;;;;;;;5005708;28;45714;-41
2023/10/17 15:35:38;;;;;;;;;5.33;5.33;;;;;;;;5013019;28;46257;-40
2023/10/17 15:38:03;;;;;;;;;4.33;4.33;;;;;;;;5013858;28;45742;-40
2023/10/17 15:40:28;;;;;;;;;5.33;4.00;;;;;;;;5011741;28;45513;-40
2023/10/17 15:42:54;;;;;;;;;7.00;5.00;;;;;;;;5010740;28;45322;-40
2023/10/17 15:45:19;;;;;;;;;5.00;5.00;;;;;;;;5013936;28;45522;-40
2023/10/17 15:47:45;;;;;;;;;5.00;5.00;;;;;;;;5008141;28;45234;-41
2023/10/17 15:50:17;;;;;;;;;4.00;4.00;;;;;;;;5014090;28;45505;-40
2023/10/17 15:52:42;;;;;;;;;4.00;4.00;;;;;;;;5019281;28;45400;-39
2023/10/17 15:55:08;;;;;;;;;4.00;4.00;;;;;;;;4993657;28;47094;-40
2023/10/17 15:57:33;;;;;;;;;4.33;4.33;;;;;;;;5018667;28;45469;-40
2023/10/17 15:59:59;;;;;;;;;3.33;3.33;;;;;;;;5012759;28;45403;-41
2023/10/17 16:02:24;;;;;;;;;4.67;4.33;;;;;;;;5002528;28;45417;-41
2023/10/17 16:04:49;;;;;;;;;5.33;5.00;;;;;;;;5020895;28;45516;-41
2023/10/17 16:07:14;;;;;;;;;6.67;5.00;;;;;;;;5017799;28;45541;-41
2023/10/17 16:09:41;;;;;;;;;4.67;4.67;;;;;;;;5020177;28;45480;-41
2023/10/17 16:12:07;;;;;;;;;8.67;5.00;;;;;;;;5020426;28;45465;-41
2023/10/17 16:14:32;;;;;;;;;3.67;2.00;;;;;;;;5020416;28;46281;-41
2023/10/17 16:16:58;;;;;;;;;4.67;4.00;;;;;;;;5020160;28;45371;-41
2023/10/17 16:19:24;;;;;;;;;5.00;5.00;;;;;;;;5008100;28;45508;-41
2023/10/17 16:21:49;;;;;;;;;5.00;3.67;;;;;;;;5019116;28;45484;-41
2023/10/17 16:24:16;;;;;;;;;6.00;4.00;;;;;;;;5014744;28;45432;-41
2023/10/17 16:26:41;;;;;;;;;8.33;5.00;;;;;;;;5020228;28;45499;-41
2023/10/17 16:29:06;;;;;;;;;5.00;4.00;;;;;;;;5020408;28;45497;-41
2023/10/17 16:31:33;;;;;;;;;6.00;5.00;;;;;;;;5015269;28;45519;-40
2023/10/17 16:33:58;;;;;;;;;6.00;6.00;;;;;;;;5023140;28;46298;-41
2023/10/17 16:36:24;;;;;;;;;6.00;6.00;;;;;;;;4990408;28;45445;-41
2023/10/17 16:38:50;;;;;;;;;7.00;5.00;;;;;;;;5016409;28;45234;-41
2023/10/17 16:41:15;;;;;;;;;5.00;5.00;;;;;;;;5014719;28;45529;-41
2023/10/17 16:43:41;;;;;;;;;5.00;5.00;;;;;;;;5025707;28;46280;-41
2023/10/17 16:46:08;;;;;;;;;10.67;7.00;;;;;;;;5002276;28;45407;-41
2023/10/17 16:48:33;;;;;;;;;7.00;6.00;;;;;;;;5011627;28;45298;-41
2023/10/17 16:50:59;;;;;;;;;4.33;3.67;;;;;;;;5013778;28;45422;-40
2023/10/17 16:53:24;;;;;;;;;4.00;4.00;;;;;;;;5013707;28;46093;-41
2023/10/17 16:55:50;;;;;;;;;6.00;6.00;;;;;;;;5002693;28;45590;-40